Portada
METAR-TAF:

METAR-TAF

Aeroports :

Saint-Pierre, Reunió

latitud: 21-20S, longitud: 055-29E, altitud: 52 m

Observació

L'informe es va fer fa 35 minuts, a les 04:00 UTC
Vent 5 kt del Est/Nord-Est, variant entre Nord i Est/Sud-Est
Temperatura 21°C
Humitat 64%
Pressió 1023 hPa
Visibilitat 10 km o més
Núvols disperses a una alçada de 6000 ft

METAR: FMEP 210400Z AUTO 07005KT 010V110 9999 SCT060 21/14 Q1023 BECMG 12025KT

Hora: 08:35 (04:35 UTC)

Pronòstic

L'informe es va fer fa 58 minuts, a les 03:37 UTC
Pronòstic vàlid del 21 a les 03 UTC al 21 a les 12 UTC
Vent 12 kt del Est/Sud-Est
Visibilitat 10 km o més
Escasses núvols a una alçada de 4000 ft
Evolucionant progressivament
l' 21 a les 03 UTC al 21 a les 05 UTC
Vent 25 kt del Est/Sud-Est
Temporalment
l' 21 a les 06 UTC al 21 a les 12 UTC
Vent 25 kt del Est/Sud-Est amb ràfegues de 35 kt

TAF: FMEP 210337Z 2103/2112 12012KT 9999 FEW040 BECMG 2103/2105 12025KT TEMPO 2106/2112 12025G35KT

Observacions i pronòstics meteorològics de més de 4000 aeroports (METAR i TAF).

Les estacions disponibles són els punts grocs i vermells al mapa.

Posi el ratolí al punt desitjat per veure el nom de l'estació.

Feu clic per veure les observacions i els pronòstics meteorològics.

Per canviar el mapa: feu clic els botons verds amb una creu de color negre per apropar; al botó verd amb un guió per allunyar la imatge; o en les fletxes verdes per a mapes adjacents.


METAR-TAF: